Time;durP1;ratioP1;P1;durP2;ratioP2;P2;SDS_P1;SDS_P2;PMS_P1;PMS_P2;Temp;Humidity;BMP_temperature;BMP_pressure;BME280_temperature;BME280_humidity;BME280_pressure;Samples;Min_cycle;Max_cycle;Signal;HPM_P1;HPM_P2
2022/06/19 00:00:38;;;;;;;10.38;2.35;;;21.30;51.60;;;;;;5027842;28;20061;-67
2022/06/19 00:03:07;;;;;;;6.40;1.83;;;21.20;51.50;;;;;;5044671;28;20034;-67
2022/06/19 00:05:33;;;;;;;7.97;1.95;;;21.20;51.50;;;;;;5043942;28;20028;-67
2022/06/19 00:07:59;;;;;;;8.48;2.03;;;21.20;51.50;;;;;;5041999;28;20435;-67
2022/06/19 00:10:24;;;;;;;8.65;1.95;;;21.10;51.50;;;;;;5037661;28;20116;-66
2022/06/19 00:12:50;;;;;;;9.60;2.03;;;21.10;51.40;;;;;;5041549;28;20429;-66
2022/06/19 00:15:16;;;;;;;8.43;2.20;;;21.00;51.40;;;;;;5051185;28;20036;-66
2022/06/19 00:17:43;;;;;;;6.78;1.80;;;21.00;51.40;;;;;;5052976;28;20025;-66
2022/06/19 00:20:10;;;;;;;7.00;2.20;;;21.00;51.40;;;;;;5043004;28;20033;-66
2022/06/19 00:22:36;;;;;;;8.18;2.00;;;21.00;51.30;;;;;;5044697;28;20083;-66
2022/06/19 00:25:04;;;;;;;9.75;2.30;;;20.90;51.30;;;;;;5034512;28;20401;-66
2022/06/19 00:27:30;;;;;;;7.43;2.03;;;20.90;51.30;;;;;;5031331;28;20091;-66
2022/06/19 00:29:57;;;;;;;7.43;2.05;;;20.90;51.30;;;;;;5037447;28;20024;-66
2022/06/19 00:32:25;;;;;;;8.85;2.15;;;20.90;51.30;;;;;;5045601;28;20028;-66
2022/06/19 00:34:51;;;;;;;12.30;2.63;;;20.90;51.40;;;;;;5028788;28;20036;-66
2022/06/19 00:37:17;;;;;;;8.80;2.10;;;20.90;51.40;;;;;;5047223;28;20026;-66
2022/06/19 00:39:42;;;;;;;8.00;2.10;;;20.90;51.40;;;;;;5046766;28;20069;-66
2022/06/19 00:42:13;;;;;;;8.70;2.05;;;20.80;51.50;;;;;;5041406;28;20132;-66
2022/06/19 00:44:40;;;;;;;8.75;1.98;;;20.80;51.50;;;;;;5031793;28;20447;-66
2022/06/19 00:47:19;;;;;;;6.00;1.90;;;20.80;51.60;;;;;;5048344;28;20017;-66
2022/06/19 00:49:58;;;;;;;10.30;2.30;;;20.70;51.60;;;;;;5047886;28;20176;-66
2022/06/19 00:52:38;;;;;;;8.20;1.98;;;20.80;51.70;;;;;;5027118;28;20079;-66
2022/06/19 00:55:11;;;;;;;8.18;2.22;;;20.70;51.70;;;;;;5043827;28;20033;-66
2022/06/19 00:57:40;;;;;;;6.95;1.92;;;20.70;51.80;;;;;;5048330;28;20348;-66
2022/06/19 01:00:08;;;;;;;8.73;2.20;;;20.70;51.80;;;;;;5047366;28;20290;-66
2022/06/19 01:02:34;;;;;;;10.27;2.13;;;20.70;51.90;;;;;;5040561;28;20120;-66
2022/06/19 01:05:01;;;;;;;7.68;1.80;;;20.70;51.90;;;;;;5041021;28;20108;-66
2022/06/19 01:07:28;;;;;;;6.90;1.77;;;20.60;51.90;;;;;;5026115;28;20033;-66
2022/06/19 01:09:54;;;;;;;8.73;2.20;;;20.60;52.00;;;;;;5041208;28;20022;-66
2022/06/19 01:12:21;;;;;;;10.48;2.60;;;20.60;52.00;;;;;;5044453;28;20020;-66
2022/06/19 01:14:48;;;;;;;10.93;2.58;;;20.60;52.00;;;;;;5045030;28;20049;-66
2022/06/19 01:17:16;;;;;;;9.70;2.30;;;20.50;52.00;;;;;;5039880;28;20028;-66
2022/06/19 01:19:43;;;;;;;9.95;2.17;;;20.50;51.90;;;;;;5038830;28;20446;-66
2022/06/19 01:22:12;;;;;;;9.63;1.98;;;20.50;51.90;;;;;;5041164;28;20083;-66
2022/06/19 01:25:02;;;;;;;9.38;2.67;;;20.50;51.80;;;;;;5047903;28;20053;-67
2022/06/19 01:30:16;;;;;;;7.78;1.92;;;20.40;51.80;;;;;;5037542;28;20043;-66
2022/06/19 01:32:44;;;;;;;11.25;2.35;;;20.40;51.80;;;;;;5044183;28;20042;-66
2022/06/19 01:35:11;;;;;;;9.35;2.45;;;20.30;51.60;;;;;;5041738;28;20131;-66
2022/06/19 01:37:39;;;;;;;9.07;2.13;;;20.40;51.40;;;;;;5049183;28;20094;-66
2022/06/19 01:40:13;;;;;;;9.10;2.47;;;20.30;51.20;;;;;;5047205;28;20029;-73
2022/06/19 01:42:39;;;;;;;10.05;2.25;;;20.20;51.00;;;;;;5040176;28;20033;-68
2022/06/19 01:45:06;;;;;;;10.20;1.88;;;20.20;51.00;;;;;;5050676;28;20025;-68
2022/06/19 01:47:32;;;;;;;7.53;1.95;;;20.20;50.70;;;;;;5046112;28;20116;-68
2022/06/19 01:49:59;;;;;;;9.40;2.35;;;20.20;50.40;;;;;;5035767;28;20108;-69
2022/06/19 01:52:28;;;;;;;8.75;2.03;;;20.20;50.10;;;;;;5037334;28;20029;-69
2022/06/19 01:55:01;;;;;;;9.55;2.30;;;20.20;49.90;;;;;;5044433;28;20407;-69
2022/06/19 01:57:27;;;;;;;8.73;1.90;;;20.20;49.60;;;;;;5036209;28;20397;-69
2022/06/19 01:59:53;;;;;;;9.18;2.10;;;20.20;49.40;;;;;;5043984;28;20120;-69
2022/06/19 02:02:20;;;;;;;9.02;1.63;;;20.20;49.20;;;;;;5046624;28;20033;-69
2022/06/19 02:04:46;;;;;;;6.13;1.83;;;20.20;49.10;;;;;;5040845;28;20063;-69
2022/06/19 02:07:18;;;;;;;8.25;1.90;;;20.20;48.80;;;;;;5045088;28;20053;-69
2022/06/19 02:09:45;;;;;;;9.90;1.63;;;20.20;48.60;;;;;;5062612;28;20039;-70
2022/06/19 02:12:11;;;;;;;8.55;2.35;;;20.20;48.50;;;;;;5039496;28;20057;-69
2022/06/19 02:14:37;;;;;;;8.70;1.85;;;20.20;48.30;;;;;;5047150;28;20496;-71
2022/06/19 02:17:12;;;;;;;11.18;1.85;;;20.20;48.10;;;;;;5041260;28;20028;-70
2022/06/19 02:19:37;;;;;;;8.45;2.05;;;20.20;47.70;;;;;;5046700;28;20029;-70
2022/06/19 02:22:14;;;;;;;5.68;1.52;;;20.10;47.50;;;;;;5037680;28;20492;-70
2022/06/19 02:24:41;;;;;;;8.27;1.95;;;20.20;47.20;;;;;;5038273;28;20031;-70
2022/06/19 02:27:08;;;;;;;9.38;1.73;;;20.10;47.10;;;;;;5037604;28;20366;-70
2022/06/19 02:29:36;;;;;;;7.97;1.98;;;20.10;47.00;;;;;;5050907;28;20017;-71
2022/06/19 02:32:02;;;;;;;7.00;1.80;;;20.10;46.90;;;;;;5057817;28;20044;-70
2022/06/19 02:34:38;;;;;;;7.32;1.90;;;20.10;47.00;;;;;;5028089;28;20045;-70
2022/06/19 02:37:10;;;;;;;7.32;1.90;;;20.00;46.90;;;;;;5047060;28;20022;-70
2022/06/19 02:39:50;;;;;;;10.00;1.98;;;20.00;47.10;;;;;;5039895;28;20029;-70
2022/06/19 02:42:24;;;;;;;7.55;1.70;;;20.00;47.20;;;;;;5042042;28;20033;-70
2022/06/19 02:44:56;;;;;;;8.00;1.90;;;20.00;47.50;;;;;;5047835;28;20037;-70
2022/06/19 02:47:24;;;;;;;6.38;1.45;;;19.90;47.80;;;;;;5049546;28;20083;-71
2022/06/19 02:49:50;;;;;;;7.82;1.73;;;19.90;48.00;;;;;;5047019;28;20025;-70
2022/06/19 02:52:16;;;;;;;8.43;2.25;;;19.90;48.30;;;;;;5045314;28;20477;-70
2022/06/19 02:54:41;;;;;;;9.00;2.03;;;19.90;48.50;;;;;;5049881;28;20025;-70
2022/06/19 02:57:09;;;;;;;8.00;1.55;;;19.90;48.60;;;;;;5053688;28;20040;-71
2022/06/19 02:59:35;;;;;;;8.23;1.75;;;19.80;48.60;;;;;;5054127;28;20052;-71
2022/06/19 03:02:01;;;;;;;9.10;1.95;;;19.90;48.70;;;;;;5044842;28;20060;-71
2022/06/19 03:04:41;;;;;;;6.55;1.40;;;19.80;48.70;;;;;;5032470;28;20036;-71
2022/06/19 03:07:08;;;;;;;6.03;1.52;;;19.80;48.70;;;;;;5055819;28;20024;-71
2022/06/19 03:09:34;;;;;;;6.13;1.73;;;19.80;48.80;;;;;;5051759;28;20028;-71
2022/06/19 03:12:00;;;;;;;5.63;1.63;;;19.80;48.90;;;;;;5049626;28;20025;-71
2022/06/19 03:14:25;;;;;;;8.18;1.52;;;19.80;49.00;;;;;;5050309;28;20064;-70
2022/06/19 03:16:52;;;;;;;9.63;1.50;;;19.80;49.10;;;;;;5047625;28;20067;-69
2022/06/19 03:19:17;;;;;;;7.05;1.83;;;19.80;49.20;;;;;;5050174;28;20121;-69
2022/06/19 03:21:43;;;;;;;6.57;1.42;;;19.80;49.30;;;;;;5047804;28;20108;-74
2022/06/19 03:24:10;;;;;;;7.20;1.50;;;19.80;49.30;;;;;;5034794;28;20143;-70
2022/06/19 03:26:37;;;;;;;6.13;1.38;;;19.80;49.30;;;;;;5053576;28;20025;-72
2022/06/19 03:29:03;;;;;;;5.00;1.60;;;19.70;49.10;;;;;;5072272;28;20029;-74
2022/06/19 03:31:30;;;;;;;5.22;1.10;;;19.70;49.20;;;;;;5057737;28;20021;-77
2022/06/19 03:33:56;;;;;;;5.15;1.20;;;19.70;49.20;;;;;;5040677;28;20053;-76
2022/06/19 03:36:24;;;;;;;6.57;1.52;;;19.60;49.10;;;;;;5040663;28;20018;-69
2022/06/19 03:38:50;;;;;;;5.28;1.20;;;19.60;49.10;;;;;;5044392;28;20056;-68
2022/06/19 03:41:16;;;;;;;6.70;1.67;;;19.70;49.00;;;;;;5044166;28;20127;-68
2022/06/19 03:43:42;;;;;;;7.13;1.50;;;19.70;48.80;;;;;;5041283;28;20029;-68
2022/06/19 03:46:12;;;;;;;7.05;1.45;;;19.70;48.80;;;;;;5042050;28;20035;-68
2022/06/19 03:48:49;;;;;;;6.53;1.40;;;19.70;48.80;;;;;;5040726;28;20117;-68
2022/06/19 03:51:16;;;;;;;5.28;0.95;;;19.60;48.90;;;;;;5037266;28;20033;-71
2022/06/19 03:53:42;;;;;;;6.43;1.30;;;19.60;49.10;;;;;;5048172;28;20028;-69
2022/06/19 03:56:10;;;;;;;7.55;1.85;;;19.60;49.40;;;;;;5039927;28;20086;-68
2022/06/19 03:58:47;;;;;;;7.35;1.67;;;19.60;49.70;;;;;;5041205;28;20045;-68
2022/06/19 04:01:19;;;;;;;6.18;1.42;;;19.60;49.90;;;;;;5044044;28;20033;-73
2022/06/19 04:03:46;;;;;;;7.95;1.83;;;19.50;50.20;;;;;;5043512;28;20028;-72
2022/06/19 04:06:13;;;;;;;7.00;1.60;;;19.50;50.40;;;;;;5040029;28;20040;-74
2022/06/19 04:08:40;;;;;;;8.73;1.58;;;19.40;50.60;;;;;;5046433;28;20075;-72
2022/06/19 04:11:07;;;;;;;10.50;2.05;;;19.50;50.80;;;;;;5045394;28;20017;-73
2022/06/19 04:13:35;;;;;;;6.95;1.70;;;19.50;50.90;;;;;;5037694;28;20037;-69
2022/06/19 04:16:04;;;;;;;9.82;1.65;;;19.50;51.00;;;;;;5043856;28;20029;-69
2022/06/19 04:18:30;;;;;;;5.45;1.45;;;19.50;51.10;;;;;;5042082;28;20036;-68
2022/06/19 04:20:57;;;;;;;9.65;1.92;;;19.50;51.20;;;;;;5049796;28;20033;-73
2022/06/19 04:23:24;;;;;;;5.43;1.40;;;19.50;51.30;;;;;;5049246;28;20036;-68
2022/06/19 04:25:51;;;;;;;7.22;1.85;;;19.50;51.40;;;;;;5049247;28;20032;-67
2022/06/19 04:28:18;;;;;;;7.10;1.50;;;19.50;51.60;;;;;;5051080;28;20394;-70
2022/06/19 04:30:48;;;;;;;6.05;1.65;;;19.50;51.60;;;;;;5043221;28;20061;-70
2022/06/19 04:33:16;;;;;;;8.30;1.92;;;19.50;51.70;;;;;;5064747;28;20029;-69
2022/06/19 04:35:42;;;;;;;11.48;1.95;;;19.50;51.80;;;;;;5042000;28;20327;-70
2022/06/19 04:38:08;;;;;;;8.07;1.75;;;19.40;51.80;;;;;;5041199;28;20037;-70
2022/06/19 04:40:36;;;;;;;10.18;2.13;;;19.50;51.90;;;;;;5051638;28;20025;-69
2022/06/19 04:43:04;;;;;;;8.25;1.70;;;19.50;51.80;;;;;;5049464;28;20457;-68
2022/06/19 04:45:31;;;;;;;6.70;1.58;;;19.40;51.70;;;;;;5049318;28;20036;-68
2022/06/19 04:47:56;;;;;;;7.68;1.77;;;19.40;51.70;;;;;;5056609;28;20090;-68
2022/06/19 04:50:22;;;;;;;9.30;1.55;;;19.40;51.40;;;;;;5055566;28;20029;-68
2022/06/19 04:52:48;;;;;;;6.25;1.40;;;19.40;51.20;;;;;;5056310;28;20033;-68
2022/06/19 04:55:15;;;;;;;11.57;1.50;;;19.40;51.00;;;;;;5050280;28;20029;-69
2022/06/19 04:57:41;;;;;;;10.25;2.30;;;19.40;50.90;;;;;;5045765;28;20041;-68
2022/06/19 05:00:10;;;;;;;7.90;1.90;;;19.40;50.90;;;;;;5055455;28;20048;-68
2022/06/19 05:02:36;;;;;;;8.38;1.42;;;19.40;50.80;;;;;;5055371;28;20044;-68
2022/06/19 05:05:02;;;;;;;5.82;1.50;;;19.50;50.70;;;;;;5046423;28;20032;-68
2022/06/19 05:07:28;;;;;;;5.97;1.20;;;19.50;50.60;;;;;;5048967;28;20032;-69
2022/06/19 05:09:53;;;;;;;8.52;1.80;;;19.60;50.70;;;;;;5045380;28;20087;-68
2022/06/19 05:12:19;;;;;;;6.90;1.70;;;19.70;50.60;;;;;;5053453;28;20048;-68
2022/06/19 05:14:44;;;;;;;8.73;1.60;;;20.10;50.00;;;;;;5025980;28;20411;-68
2022/06/19 05:17:10;;;;;;;6.75;1.55;;;20.30;49.70;;;;;;5052078;28;20037;-68
2022/06/19 05:19:40;;;;;;;6.50;1.40;;;20.40;49.50;;;;;;5043180;28;20040;-68
2022/06/19 05:22:06;;;;;;;6.38;1.60;;;20.50;49.40;;;;;;5045848;28;20033;-68
2022/06/19 05:24:32;;;;;;;6.53;1.58;;;20.50;49.40;;;;;;5041268;28;20029;-70
2022/06/19 05:26:57;;;;;;;8.40;1.42;;;20.60;49.40;;;;;;5052800;28;20043;-69
2022/06/19 05:29:23;;;;;;;10.02;2.03;;;20.60;49.30;;;;;;5048006;28;20352;-70
2022/06/19 05:31:50;;;;;;;7.15;1.50;;;20.70;49.40;;;;;;5028660;28;20029;-70
2022/06/19 05:34:16;;;;;;;5.40;1.33;;;20.70;49.40;;;;;;5038195;28;20022;-69
2022/06/19 05:36:41;;;;;;;10.15;1.75;;;20.80;49.40;;;;;;5047785;28;20363;-68
2022/06/19 05:39:08;;;;;;;8.10;1.73;;;20.80;49.20;;;;;;5042306;28;20059;-70
2022/06/19 05:41:34;;;;;;;5.93;1.50;;;20.90;49.00;;;;;;5043738;28;20100;-69
2022/06/19 05:44:00;;;;;;;9.15;1.95;;;21.00;48.90;;;;;;5036908;28;20112;-70
2022/06/19 05:46:25;;;;;;;9.18;1.80;;;21.10;48.80;;;;;;5037221;28;20032;-68
2022/06/19 05:48:51;;;;;;;6.13;1.65;;;21.10;48.80;;;;;;5038545;28;20021;-69
2022/06/19 05:51:22;;;;;;;6.32;1.83;;;21.10;48.70;;;;;;5021737;28;20025;-68
2022/06/19 05:53:52;;;;;;;6.30;1.55;;;21.10;48.40;;;;;;5034311;28;20021;-68
2022/06/19 05:56:18;;;;;;;8.10;1.35;;;21.10;48.20;;;;;;5042073;28;20037;-68
2022/06/19 05:58:44;;;;;;;7.20;1.60;;;21.10;48.10;;;;;;5033835;28;20021;-73
2022/06/19 06:01:11;;;;;;;4.82;1.52;;;21.20;48.00;;;;;;5036140;28;20033;-70
2022/06/19 06:03:37;;;;;;;5.78;1.50;;;21.30;47.80;;;;;;5017090;28;20047;-70
2022/06/19 06:06:06;;;;;;;7.80;1.80;;;21.40;47.70;;;;;;5035982;28;20033;-71
2022/06/19 06:08:34;;;;;;;5.75;1.35;;;21.50;47.50;;;;;;5034811;28;20029;-70
2022/06/19 06:11:00;;;;;;;5.85;1.02;;;21.60;47.10;;;;;;5034925;28;20439;-70
2022/06/19 06:13:29;;;;;;;5.18;1.35;;;21.60;47.00;;;;;;5035453;28;20068;-73
2022/06/19 06:15:55;;;;;;;3.97;0.93;;;21.50;46.60;;;;;;5033068;28;20037;-73
2022/06/19 06:18:20;;;;;;;8.48;1.63;;;21.50;46.40;;;;;;5032317;28;20030;-73
2022/06/19 06:20:58;;;;;;;6.05;1.45;;;21.60;46.20;;;;;;5016640;28;20108;-73
2022/06/19 06:23:25;;;;;;;4.07;1.10;;;21.70;45.80;;;;;;5036148;28;20026;-73
2022/06/19 06:26:08;;;;;;;6.63;1.23;;;21.80;45.40;;;;;;5032537;28;20484;-72
2022/06/19 06:28:36;;;;;;;7.63;1.60;;;21.90;45.20;;;;;;5033678;28;20034;-73
2022/06/19 06:31:02;;;;;;;6.80;1.40;;;21.90;45.10;;;;;;5037056;28;20036;-69
2022/06/19 06:33:28;;;;;;;6.93;1.52;;;21.80;45.10;;;;;;5015166;28;20458;-70
2022/06/19 06:35:55;;;;;;;6.75;1.05;;;21.60;45.20;;;;;;5036756;28;20442;-68
2022/06/19 06:38:22;;;;;;;5.00;1.10;;;21.50;45.30;;;;;;5034710;28;20072;-69
2022/06/19 06:40:48;;;;;;;6.72;1.25;;;21.40;45.10;;;;;;5035986;28;20181;-69
2022/06/19 06:43:14;;;;;;;7.07;1.35;;;21.20;44.60;;;;;;5035486;28;20037;-69
2022/06/19 06:45:40;;;;;;;3.67;1.00;;;21.20;44.60;;;;;;5041924;28;20435;-69
2022/06/19 06:48:06;;;;;;;6.35;1.17;;;21.10;44.50;;;;;;5032432;28;20532;-69
2022/06/19 06:50:32;;;;;;;7.20;1.60;;;21.00;44.40;;;;;;5032469;28;20108;-69
2022/06/19 06:52:57;;;;;;;4.90;1.45;;;20.90;44.60;;;;;;5033275;28;20025;-69
2022/06/19 06:55:23;;;;;;;6.28;1.33;;;20.80;44.50;;;;;;5036813;28;20416;-69
2022/06/19 06:57:49;;;;;;;4.75;1.35;;;20.80;44.70;;;;;;5020838;28;20025;-69
2022/06/19 07:00:20;;;;;;;5.38;1.27;;;20.70;45.00;;;;;;5035743;28;20374;-69
2022/06/19 07:02:46;;;;;;;8.80;1.52;;;20.60;45.60;;;;;;5033405;28;20120;-69
2022/06/19 07:05:12;;;;;;;7.82;1.65;;;20.50;46.10;;;;;;5038794;28;20187;-69
2022/06/19 07:07:38;;;;;;;4.32;1.23;;;20.40;46.70;;;;;;5035195;28;20028;-68
2022/06/19 07:10:04;;;;;;;5.05;1.55;;;20.30;47.20;;;;;;5027651;28;20443;-68
2022/06/19 07:12:30;;;;;;;6.57;1.30;;;20.20;47.90;;;;;;5044720;28;20388;-69
2022/06/19 07:14:56;;;;;;;6.90;1.80;;;20.10;48.70;;;;;;5040541;28;20107;-68
2022/06/19 07:17:21;;;;;;;6.25;1.65;;;20.00;49.30;;;;;;5052546;28;20029;-68
2022/06/19 07:19:47;;;;;;;4.80;1.30;;;19.90;50.00;;;;;;5052392;28;20039;-68
2022/06/19 07:22:15;;;;;;;7.70;1.80;;;19.90;50.70;;;;;;5043541;28;20120;-68
2022/06/19 07:24:42;;;;;;;6.80;1.58;;;19.80;51.50;;;;;;5035561;28;20017;-68
2022/06/19 07:27:08;;;;;;;8.00;1.67;;;19.70;52.20;;;;;;5051180;28;20094;-68
2022/06/19 07:29:34;;;;;;;6.05;1.30;;;19.70;52.80;;;;;;5054086;28;20351;-68
2022/06/19 07:31:59;;;;;;;4.90;1.63;;;19.60;53.40;;;;;;5039207;28;20021;-68
2022/06/19 07:34:25;;;;;;;8.27;1.63;;;19.50;54.00;;;;;;5042957;28;20533;-67
2022/06/19 07:36:51;;;;;;;5.45;1.45;;;19.50;54.80;;;;;;5048916;28;20029;-67
2022/06/19 07:39:16;;;;;;;8.20;1.80;;;19.40;55.60;;;;;;5038246;28;20031;-68
2022/06/19 07:41:42;;;;;;;8.30;1.88;;;19.40;56.30;;;;;;5054564;28;20123;-68
2022/06/19 07:44:08;;;;;;;12.40;2.25;;;19.30;57.00;;;;;;5050402;28;20032;-67
2022/06/19 07:50:09;;;;;;;8.65;2.13;;;19.30;57.60;;;;;;5049019;28;20529;-71
2022/06/19 07:52:03;;;;;;;9.02;2.00;;;19.20;58.50;;;;;;5040255;28;20136;-68
2022/06/19 07:54:29;;;;;;;9.40;1.98;;;19.10;58.90;;;;;;5052572;28;20100;-68
2022/06/19 07:56:54;;;;;;;10.18;1.83;;;19.10;59.40;;;;;;5045368;28;20120;-68
2022/06/19 07:59:20;;;;;;;7.88;2.10;;;19.00;60.10;;;;;;5053845;28;20460;-68
2022/06/19 08:01:46;;;;;;;9.57;2.17;;;19.00;60.50;;;;;;5040957;28;20037;-69
2022/06/19 08:04:12;;;;;;;11.48;2.03;;;19.00;61.00;;;;;;5036339;28;20496;-67
2022/06/19 08:06:37;;;;;;;15.07;2.80;;;18.90;61.30;;;;;;5043747;28;20032;-68
2022/06/19 08:09:03;;;;;;;8.25;1.90;;;18.90;61.70;;;;;;5056836;28;20032;-69
2022/06/19 08:11:29;;;;;;;7.47;1.88;;;18.90;62.00;;;;;;5035489;28;20426;-68
2022/06/19 08:13:54;;;;;;;8.25;1.98;;;18.80;62.40;;;;;;5052527;28;20045;-69
2022/06/19 08:16:20;;;;;;;8.00;1.90;;;18.80;62.70;;;;;;5047028;28;20095;-68
2022/06/19 08:18:46;;;;;;;7.50;1.42;;;18.80;63.20;;;;;;5039736;28;20033;-67
2022/06/19 08:21:11;;;;;;;6.82;1.95;;;18.70;63.60;;;;;;5039682;28;20025;-68
2022/06/19 08:23:37;;;;;;;8.00;1.70;;;18.80;63.90;;;;;;5049334;28;20048;-68
2022/06/19 08:26:03;;;;;;;6.97;1.92;;;18.80;64.20;;;;;;5052575;28;20370;-68
2022/06/19 08:28:54;;;;;;;7.03;1.67;;;18.80;64.40;;;;;;5027869;28;20029;-67
2022/06/19 08:31:17;;;;;;;8.75;1.70;;;18.80;64.50;;;;;;5044170;28;20036;-68
2022/06/19 08:33:43;;;;;;;9.07;1.90;;;18.90;64.70;;;;;;5041881;28;20025;-68
2022/06/19 08:36:11;;;;;;;8.88;2.00;;;18.90;65.00;;;;;;5037882;28;20048;-69
2022/06/19 08:38:42;;;;;;;8.75;2.10;;;18.80;65.00;;;;;;5039227;28;20355;-68
2022/06/19 08:41:15;;;;;;;8.75;2.20;;;18.90;65.00;;;;;;5047416;28;20043;-72
2022/06/19 08:44:06;;;;;;;7.13;1.85;;;18.90;65.10;;;;;;5044696;28;20043;-67
2022/06/19 08:46:53;;;;;;;8.43;1.85;;;19.00;64.70;;;;;;5025058;28;20029;-68
2022/06/19 08:49:22;;;;;;;9.63;2.10;;;19.00;64.80;;;;;;5048324;28;20080;-68
2022/06/19 08:52:06;;;;;;;8.32;2.08;;;19.00;64.60;;;;;;5035880;28;20041;-68
2022/06/19 08:54:52;;;;;;;9.18;2.00;;;19.10;64.60;;;;;;5036129;28;20088;-69
2022/06/19 08:57:30;;;;;;;7.78;2.17;;;19.10;64.60;;;;;;5036979;28;20040;-68
2022/06/19 09:00:19;;;;;;;9.30;1.65;;;19.10;64.80;;;;;;5037319;28;20030;-69
2022/06/19 09:02:54;;;;;;;9.75;2.00;;;19.10;64.70;;;;;;5027961;28;20037;-68
2022/06/19 09:05:46;;;;;;;8.15;1.40;;;19.00;64.40;;;;;;5045530;28;20124;-68
2022/06/19 09:08:21;;;;;;;6.90;1.48;;;19.00;64.40;;;;;;5040948;28;20053;-68
2022/06/19 09:11:18;;;;;;;9.07;2.08;;;19.00;64.60;;;;;;5051353;28;20339;-68
2022/06/19 09:13:55;;;;;;;9.60;2.00;;;19.00;64.70;;;;;;5036074;28;20366;-67
2022/06/19 09:16:32;;;;;;;9.25;2.38;;;19.10;64.60;;;;;;5042681;28;20087;-69
2022/06/19 09:19:05;;;;;;;7.30;1.92;;;19.10;64.70;;;;;;5040325;28;20064;-68
2022/06/19 09:21:50;;;;;;;7.57;1.80;;;19.10;64.70;;;;;;5043874;28;20033;-68
2022/06/19 09:24:32;;;;;;;6.32;1.60;;;19.30;64.60;;;;;;5036780;28;20184;-68
2022/06/19 09:27:00;;;;;;;7.00;1.85;;;19.50;64.20;;;;;;5038955;28;20040;-66
2022/06/19 09:29:49;;;;;;;8.65;2.40;;;19.60;63.90;;;;;;5044625;28;20359;-66
2022/06/19 09:32:25;;;;;;;8.18;1.92;;;19.90;63.40;;;;;;5045628;28;20025;-69
2022/06/19 09:34:57;;;;;;;6.15;1.60;;;20.10;63.20;;;;;;5034676;28;20021;-68
2022/06/19 09:37:36;;;;;;;8.20;1.75;;;20.10;62.70;;;;;;5042786;28;20036;-65
2022/06/19 09:40:23;;;;;;;8.93;1.90;;;20.20;62.50;;;;;;5037009;28;20068;-69
2022/06/19 09:42:58;;;;;;;5.95;1.55;;;20.30;62.20;;;;;;5029854;28;20095;-69
2022/06/19 09:45:50;;;;;;;7.50;1.80;;;20.40;62.30;;;;;;5045858;28;20033;-68
2022/06/19 09:48:47;;;;;;;6.78;1.70;;;20.70;61.00;;;;;;5040652;28;20059;-67
2022/06/19 09:51:12;;;;;;;5.60;1.65;;;20.90;61.20;;;;;;5052366;28;20025;-69
2022/06/19 09:54:04;;;;;;;9.30;1.92;;;21.10;60.10;;;;;;5042612;28;20428;-68
2022/06/19 09:56:46;;;;;;;4.75;1.58;;;21.60;59.50;;;;;;5042396;28;20167;-68
2022/06/19 09:59:21;;;;;;;5.22;1.30;;;22.00;58.60;;;;;;5048927;28;20049;-67
2022/06/19 10:01:56;;;;;;;5.78;1.85;;;22.50;57.50;;;;;;5050187;28;20398;-68
2022/06/19 10:04:45;;;;;;;6.50;1.40;;;22.60;56.70;;;;;;5039528;28;20466;-68
2022/06/19 10:07:35;;;;;;;6.25;1.65;;;22.80;56.60;;;;;;5048420;28;20037;-68
2022/06/19 10:10:19;;;;;;;6.25;1.63;;;22.80;55.90;;;;;;5045729;28;20030;-68
2022/06/19 10:12:47;;;;;;;5.68;1.30;;;22.70;55.20;;;;;;5048469;28;20033;-68
2022/06/19 10:15:22;;;;;;;4.32;1.33;;;22.70;55.30;;;;;;5048566;28;20045;-68
2022/06/19 10:17:54;;;;;;;4.22;1.20;;;22.60;55.20;;;;;;5039809;28;20040;-68
2022/06/19 10:20:37;;;;;;;5.38;1.70;;;22.70;55.00;;;;;;5041060;28;20100;-68
2022/06/19 10:23:09;;;;;;;4.70;1.23;;;22.60;54.40;;;;;;5037528;28;20126;-68
2022/06/19 10:26:08;;;;;;;6.53;1.63;;;22.70;54.00;;;;;;5035666;28;20083;-68
2022/06/19 10:29:05;;;;;;;4.25;1.25;;;22.70;53.40;;;;;;5035597;28;20025;-67
2022/06/19 10:31:36;;;;;;;3.25;1.13;;;22.70;53.00;;;;;;5051079;28;20028;-71
2022/06/19 10:34:19;;;;;;;4.85;1.20;;;22.60;53.10;;;;;;5031271;28;20021;-67
2022/06/19 10:36:55;;;;;;;6.82;1.40;;;22.50;52.70;;;;;;5044323;28;20040;-68
2022/06/19 10:39:51;;;;;;;5.75;1.52;;;22.50;52.80;;;;;;5037329;28;20068;-68
2022/06/19 10:42:35;;;;;;;4.85;1.40;;;22.50;52.80;;;;;;5038681;28;20451;-67
2022/06/19 10:45:25;;;;;;;5.18;1.50;;;22.50;52.90;;;;;;5039113;28;20025;-67
2022/06/19 10:47:59;;;;;;;6.10;1.35;;;22.50;53.20;;;;;;5036321;28;20044;-67
2022/06/19 10:50:31;;;;;;;5.10;1.40;;;22.70;53.30;;;;;;5039258;28;20086;-67
2022/06/19 10:53:10;;;;;;;6.25;1.30;;;22.90;53.00;;;;;;5039020;28;20025;-69
2022/06/19 10:55:38;;;;;;;5.88;1.60;;;23.00;52.80;;;;;;5041297;28;20113;-74
2022/06/19 10:58:18;;;;;;;6.93;1.40;;;23.40;52.30;;;;;;5039889;28;20489;-73
2022/06/19 11:00:45;;;;;;;7.70;1.73;;;23.60;52.00;;;;;;5048861;28;20451;-73
2022/06/19 11:06:40;;;;;;;6.78;1.75;;;24.10;51.40;;;;;;5034718;28;20509;-68
2022/06/19 11:09:13;;;;;;;6.88;1.70;;;24.10;51.20;;;;;;5037595;28;20029;-68
2022/06/19 11:11:39;;;;;;;7.03;1.55;;;23.90;51.50;;;;;;5045161;28;20033;-69
2022/06/19 11:14:27;;;;;;;7.25;2.35;;;23.80;51.70;;;;;;5038720;28;20494;-68
2022/06/19 11:17:28;;;;;;;5.43;1.70;;;23.70;52.20;;;;;;5039724;28;20359;-69
2022/06/19 11:19:54;;;;;;;6.32;1.90;;;23.60;52.20;;;;;;5035465;28;20037;-68
2022/06/19 11:22:32;;;;;;;6.20;1.77;;;23.70;52.50;;;;;;5041182;28;20047;-68
2022/06/19 11:25:21;;;;;;;9.00;1.92;;;23.60;52.70;;;;;;5041336;28;20458;-68
2022/06/19 11:28:00;;;;;;;9.50;2.65;;;23.60;52.80;;;;;;5039690;28;20029;-68
2022/06/19 11:30:44;;;;;;;6.20;1.70;;;23.50;52.70;;;;;;5040998;28;20091;-69
2022/06/19 11:33:15;;;;;;;6.50;1.92;;;23.50;52.90;;;;;;5040601;28;20029;-67
2022/06/19 11:35:59;;;;;;;6.78;2.33;;;23.50;52.90;;;;;;5039075;28;20033;-67
2022/06/19 11:38:33;;;;;;;6.57;1.80;;;23.70;52.50;;;;;;5040226;28;20368;-67
2022/06/19 11:40:58;;;;;;;7.13;2.28;;;23.70;52.60;;;;;;5039719;28;20025;-67
2022/06/19 11:43:30;;;;;;;9.77;2.30;;;23.60;52.90;;;;;;5037731;28;20358;-66
2022/06/19 11:46:25;;;;;;;6.22;2.00;;;23.60;53.10;;;;;;5043305;28;20441;-66
2022/06/19 11:48:50;;;;;;;10.02;2.50;;;23.50;53.30;;;;;;5036409;28;20033;-66
2022/06/19 11:51:22;;;;;;;8.38;1.85;;;23.30;53.70;;;;;;5040025;28;20021;-66
2022/06/19 11:53:55;;;;;;;7.40;2.28;;;23.30;53.90;;;;;;5036782;28;20030;-66
2022/06/19 11:56:30;;;;;;;6.40;2.10;;;23.40;53.60;;;;;;5036417;28;20358;-68
2022/06/19 11:59:16;;;;;;;6.88;2.00;;;23.50;53.30;;;;;;5043323;28;20068;-67
2022/06/19 12:01:45;;;;;;;7.35;1.95;;;23.60;53.20;;;;;;5053011;28;20037;-67
2022/06/19 12:04:23;;;;;;;7.68;2.05;;;23.70;52.80;;;;;;5039147;28;20041;-66
2022/06/19 12:06:53;;;;;;;6.95;1.70;;;23.70;52.80;;;;;;5050987;28;20064;-66
2022/06/19 12:09:45;;;;;;;4.90;1.63;;;23.70;52.90;;;;;;5024867;28;20509;-65
2022/06/19 12:12:10;;;;;;;6.20;2.25;;;23.60;52.90;;;;;;5046034;28;20043;-66
2022/06/19 12:15:14;;;;;;;6.03;1.55;;;23.50;53.10;;;;;;5049249;28;20037;-66
2022/06/19 12:17:43;;;;;;;5.28;1.75;;;23.40;53.00;;;;;;5049715;28;20462;-64
2022/06/19 12:20:09;;;;;;;6.40;1.92;;;23.40;52.80;;;;;;5043060;28;20100;-64
2022/06/19 12:22:58;;;;;;;4.28;1.35;;;23.40;52.80;;;;;;5048767;28;20108;-66
2022/06/19 12:25:35;;;;;;;6.45;2.10;;;23.30;52.80;;;;;;5042374;28;20439;-65
2022/06/19 12:28:29;;;;;;;8.05;2.13;;;23.20;53.20;;;;;;5051960;28;20036;-67
2022/06/19 12:31:08;;;;;;;5.85;1.77;;;22.90;53.40;;;;;;5040036;28;20031;-66
2022/06/19 12:33:40;;;;;;;6.43;1.80;;;22.70;54.10;;;;;;5044641;28;20087;-66
2022/06/19 12:36:10;;;;;;;8.27;2.13;;;22.50;54.70;;;;;;5039780;28;20034;-65
2022/06/19 12:38:36;;;;;;;6.28;2.05;;;22.30;55.00;;;;;;5050577;28;20032;-65
2022/06/19 12:41:10;;;;;;;7.90;2.00;;;22.10;55.40;;;;;;5043150;28;20029;-65
2022/06/19 12:43:57;;;;;;;9.30;2.42;;;22.00;55.80;;;;;;5044653;28;20025;-66
2022/06/19 12:46:47;;;;;;;9.23;2.22;;;21.80;56.00;;;;;;5043155;28;20377;-65
2022/06/19 12:49:26;;;;;;;6.93;1.70;;;21.70;56.10;;;;;;5051195;28;20113;-65
2022/06/19 12:52:03;;;;;;;6.50;1.80;;;21.70;56.50;;;;;;5050751;28;20727;-65
2022/06/19 12:54:48;;;;;;;7.57;2.10;;;21.70;56.30;;;;;;5046160;28;20017;-66
2022/06/19 12:57:42;;;;;;;8.35;1.98;;;21.80;56.30;;;;;;5039217;28;20026;-66
2022/06/19 13:00:16;;;;;;;7.47;2.08;;;21.90;56.00;;;;;;5041936;28;20478;-65
2022/06/19 13:02:47;;;;;;;6.30;2.20;;;21.90;55.90;;;;;;5042752;28;20107;-65
2022/06/19 13:05:38;;;;;;;5.75;1.60;;;22.00;55.90;;;;;;5048525;28;20025;-65
2022/06/19 13:08:06;;;;;;;;;;;22.10;55.80;;;;;;5053643;28;20013;-67
2022/06/19 13:10:42;;;;;;;5.75;1.90;;;22.20;55.60;;;;;;5027280;28;19908;-66
2022/06/19 13:13:21;;;;;;;5.68;1.63;;;22.20;55.80;;;;;;5049122;28;20418;-66
2022/06/19 13:16:26;;;;;;;4.75;1.65;;;22.20;55.60;;;;;;5036943;28;20030;-66